Time;durP1;ratioP1;P1;durP2;ratioP2;P2;SDS_P1;SDS_P2;PMS_P1;PMS_P2;Temp;Humidity;BMP_temperature;BMP_pressure;BME280_temperature;BME280_humidity;BME280_pressure;Samples;Min_cycle;Max_cycle;Signal;HPM_P1;HPM_P2
2023/12/29 00:01:54;;;;;;;9.50;7.63;;;10.50;99.90;;;;;;5060283;28;20594;-75
2023/12/29 00:04:22;;;;;;;12.00;9.10;;;10.40;99.90;;;;;;5052742;28;20562;-73
2023/12/29 00:06:50;;;;;;;8.20;6.93;;;10.50;99.90;;;;;;5036684;28;20537;-72
2023/12/29 00:09:17;;;;;;;10.30;8.17;;;10.50;99.90;;;;;;5024226;28;20486;-73
2023/12/29 00:11:44;;;;;;;11.23;8.77;;;10.40;99.90;;;;;;5065381;28;20487;-74
2023/12/29 00:14:11;;;;;;;18.40;11.40;;;10.30;99.90;;;;;;5036929;28;20476;-73
2023/12/29 00:16:38;;;;;;;15.30;8.47;;;10.40;99.90;;;;;;5037361;28;20965;-76
2023/12/29 00:19:05;;;;;;;13.30;7.70;;;10.50;99.90;;;;;;5033889;28;20491;-75
2023/12/29 00:21:33;;;;;;;10.07;6.20;;;10.50;99.90;;;;;;5036608;28;20547;-73
2023/12/29 00:24:00;;;;;;;12.90;6.83;;;10.50;99.90;;;;;;5056875;28;20854;-74
2023/12/29 00:26:26;;;;;;;16.20;8.17;;;10.50;99.90;;;;;;5036834;28;20905;-74
2023/12/29 00:28:54;;;;;;;14.03;10.40;;;10.50;99.90;;;;;;5034922;28;20992;-76
2023/12/29 00:31:21;;;;;;;4.87;3.37;;;10.50;99.90;;;;;;5034581;28;21011;-77
2023/12/29 00:33:51;;;;;;;14.40;8.03;;;10.50;99.90;;;;;;5034327;28;20606;-73
2023/12/29 00:36:19;;;;;;;9.83;7.20;;;10.50;99.90;;;;;;5035731;28;21790;-76
2023/12/29 00:38:47;;;;;;;9.17;6.17;;;10.50;99.90;;;;;;5033912;28;20993;-79
2023/12/29 00:41:14;;;;;;;13.93;9.70;;;10.40;99.90;;;;;;5034388;28;20569;-74
2023/12/29 00:43:41;;;;;;;15.43;8.90;;;10.40;99.90;;;;;;5018965;28;20567;-72
2023/12/29 00:46:09;;;;;;;12.43;9.10;;;10.40;99.90;;;;;;5036292;28;20563;-74
2023/12/29 00:48:36;;;;;;;12.00;8.33;;;10.40;99.90;;;;;;5046145;28;21000;-76
2023/12/29 00:51:03;;;;;;;7.23;5.10;;;10.40;99.90;;;;;;5047902;28;20562;-73
2023/12/29 00:53:32;;;;;;;12.87;6.43;;;;;;;;;;5035892;28;20482;-77
2023/12/29 00:56:00;;;;;;;8.90;5.47;;;10.50;99.90;;;;;;5033989;28;20550;-75
2023/12/29 00:58:27;;;;;;;6.20;5.40;;;10.50;99.90;;;;;;5033867;28;20483;-76
2023/12/29 01:00:54;;;;;;;14.73;10.20;;;;;;;;;;5033652;28;20912;-73
2023/12/29 01:03:21;;;;;;;19.10;8.97;;;10.50;99.90;;;;;;5038761;28;20479;-74
2023/12/29 01:05:48;;;;;;;8.30;6.60;;;10.50;99.90;;;;;;5035767;28;20910;-74
2023/12/29 01:08:15;;;;;;;6.30;5.70;;;10.50;99.90;;;;;;5037482;28;20583;-74
2023/12/29 01:10:41;;;;;;;9.40;8.53;;;10.40;99.90;;;;;;5036477;28;20945;-73
2023/12/29 01:13:10;;;;;;;6.10;4.40;;;10.40;99.90;;;;;;5038950;28;21371;-73
2023/12/29 01:15:36;;;;;;;9.13;8.10;;;10.30;99.90;;;;;;5026423;28;20472;-72
2023/12/29 01:18:03;;;;;;;11.17;10.00;;;10.40;99.90;;;;;;5036383;28;21294;-76
2023/12/29 01:20:30;;;;;;;8.50;7.67;;;10.30;99.90;;;;;;5033645;28;20555;-76
2023/12/29 01:22:57;;;;;;;11.63;7.77;;;10.40;99.90;;;;;;5040113;28;20913;-74
2023/12/29 01:25:25;;;;;;;8.07;7.00;;;;;;;;;;5034530;28;21100;-73
2023/12/29 01:27:52;;;;;;;22.43;8.83;;;;;;;;;;5041547;28;20890;-74
2023/12/29 01:30:20;;;;;;;8.93;7.73;;;10.20;99.90;;;;;;5044292;28;20597;-74
2023/12/29 01:32:47;;;;;;;9.57;7.80;;;10.30;99.90;;;;;;5039507;28;20891;-73
2023/12/29 01:35:14;;;;;;;9.97;7.20;;;10.20;99.90;;;;;;5034286;28;20542;-71
2023/12/29 01:37:41;;;;;;;15.53;6.13;;;10.20;99.90;;;;;;5034032;28;20472;-73
2023/12/29 01:40:09;;;;;;;11.23;7.30;;;10.30;99.90;;;;;;5032619;28;20595;-73
2023/12/29 01:42:35;;;;;;;11.53;9.67;;;10.10;99.90;;;;;;5038455;28;20712;-76
2023/12/29 01:45:02;;;;;;;9.57;7.67;;;10.20;99.90;;;;;;5039118;28;20574;-72
2023/12/29 01:47:31;;;;;;;11.03;8.60;;;10.20;99.90;;;;;;5054492;28;20479;-73
2023/12/29 01:49:58;;;;;;;26.23;7.50;;;10.10;99.90;;;;;;5054265;28;20562;-75
2023/12/29 01:52:25;;;;;;;11.20;7.83;;;10.10;99.90;;;;;;5053993;28;20594;-76
2023/12/29 01:54:53;;;;;;;8.70;7.10;;;10.20;99.90;;;;;;5053044;28;20567;-75
2023/12/29 01:57:20;;;;;;;15.77;8.17;;;10.20;99.90;;;;;;5054151;28;21140;-72
2023/12/29 01:59:48;;;;;;;9.23;4.77;;;10.20;99.90;;;;;;5051876;28;20528;-79
2023/12/29 02:02:16;;;;;;;10.57;6.57;;;10.30;99.90;;;;;;5047706;28;20556;-74
2023/12/29 02:04:45;;;;;;;8.83;6.87;;;10.30;99.90;;;;;;5031936;28;20480;-76
2023/12/29 02:07:12;;;;;;;10.97;9.87;;;10.20;99.90;;;;;;5034271;28;20503;-77
2023/12/29 02:09:40;;;;;;;15.63;7.00;;;10.30;99.90;;;;;;5033327;28;20895;-74
2023/12/29 02:12:07;;;;;;;9.47;6.27;;;10.30;99.90;;;;;;5036090;28;20900;-74
2023/12/29 02:14:34;;;;;;;11.23;6.60;;;10.40;99.90;;;;;;5034918;28;20923;-75
2023/12/29 02:17:11;;;;;;;10.90;7.40;;;10.30;99.90;;;;;;5034632;28;20590;-74
2023/12/29 02:19:40;;;;;;;16.37;8.83;;;10.30;99.90;;;;;;5018754;28;20519;-74
2023/12/29 02:22:11;;;;;;;17.73;9.77;;;10.20;99.90;;;;;;5056549;28;20484;-72
2023/12/29 02:24:39;;;;;;;14.33;9.17;;;10.20;99.90;;;;;;5055294;28;20581;-73
2023/12/29 02:27:24;;;;;;;12.73;6.40;;;10.10;99.90;;;;;;5033772;28;20464;-75
2023/12/29 02:30:02;;;;;;;13.07;7.77;;;10.10;99.90;;;;;;5042841;28;20594;-75
2023/12/29 02:32:30;;;;;;;10.53;9.47;;;10.10;99.90;;;;;;5047180;28;20548;-71
2023/12/29 02:35:00;;;;;;;9.60;8.60;;;10.00;99.90;;;;;;5054992;28;20740;-74
2023/12/29 02:37:28;;;;;;;21.87;11.80;;;9.90;99.90;;;;;;5052744;28;20487;-71
2023/12/29 02:39:58;;;;;;;11.00;5.90;;;10.00;99.90;;;;;;5051213;28;20581;-72
2023/12/29 02:42:26;;;;;;;10.70;9.20;;;10.00;99.90;;;;;;5052189;28;20482;-75
2023/12/29 02:44:53;;;;;;;14.63;7.77;;;10.20;99.90;;;;;;5054418;28;20506;-75
2023/12/29 02:47:21;;;;;;;8.50;7.10;;;10.10;99.90;;;;;;5052155;28;20588;-75
2023/12/29 02:49:49;;;;;;;7.03;4.73;;;10.20;99.90;;;;;;5032082;28;21076;-76
2023/12/29 02:52:16;;;;;;;8.70;7.20;;;10.30;99.90;;;;;;5034776;28;20472;-72
2023/12/29 02:54:42;;;;;;;7.70;6.37;;;10.30;99.90;;;;;;5037624;28;20491;-73
2023/12/29 02:57:09;;;;;;;18.33;4.53;;;10.30;99.90;;;;;;5038173;28;20550;-73
2023/12/29 02:59:38;;;;;;;7.17;6.20;;;10.30;99.90;;;;;;5055023;28;21072;-74
2023/12/29 03:02:05;;;;;;;12.00;5.90;;;10.30;99.90;;;;;;5055873;28;20865;-75
2023/12/29 03:04:32;;;;;;;10.03;4.93;;;10.30;99.90;;;;;;5060727;28;20577;-75
2023/12/29 03:06:58;;;;;;;8.50;5.93;;;10.30;99.90;;;;;;5057472;28;20558;-75
2023/12/29 03:09:25;;;;;;;7.63;6.67;;;10.20;99.90;;;;;;5054868;28;20673;-75
2023/12/29 03:11:52;;;;;;;10.00;6.17;;;10.30;99.90;;;;;;5051389;28;20933;-73
2023/12/29 03:14:19;;;;;;;12.90;9.20;;;10.20;99.90;;;;;;5075824;28;21044;-74
2023/12/29 03:16:47;;;;;;;9.10;6.07;;;10.20;99.90;;;;;;5063483;28;20475;-76
2023/12/29 03:19:14;;;;;;;14.10;6.13;;;10.30;99.90;;;;;;5051897;28;21005;-72
2023/12/29 03:21:41;;;;;;;9.20;5.47;;;10.30;99.90;;;;;;5061724;28;20474;-76
2023/12/29 03:24:08;;;;;;;10.50;6.60;;;10.30;99.90;;;;;;5062145;28;20475;-76
2023/12/29 03:26:35;;;;;;;8.73;6.00;;;10.40;99.90;;;;;;5054436;28;20544;-75
2023/12/29 03:29:01;;;;;;;5.53;5.03;;;10.30;99.90;;;;;;5047420;28;20574;-75
2023/12/29 03:31:29;;;;;;;14.80;6.27;;;;;;;;;;5044190;28;20801;-76
2023/12/29 03:33:57;;;;;;;7.87;5.50;;;10.40;99.90;;;;;;5056848;28;20932;-75
2023/12/29 03:36:24;;;;;;;13.70;6.23;;;10.40;99.90;;;;;;5044831;28;20958;-74
2023/12/29 03:38:51;;;;;;;22.20;8.50;;;10.30;99.90;;;;;;5048709;28;20566;-75
2023/12/29 03:41:18;;;;;;;10.23;7.63;;;10.50;99.90;;;;;;5053994;28;21037;-73
2023/12/29 03:43:45;;;;;;;12.23;6.40;;;10.40;99.90;;;;;;5023739;28;20739;-74
2023/12/29 03:46:19;;;;;;;18.07;8.27;;;10.40;99.90;;;;;;5045703;28;20506;-72
2023/12/29 03:48:46;;;;;;;9.90;7.27;;;10.40;99.90;;;;;;5047428;28;20470;-73
2023/12/29 03:51:15;;;;;;;11.03;8.17;;;10.50;99.90;;;;;;5050324;28;20511;-71
2023/12/29 03:53:42;;;;;;;13.57;7.13;;;10.40;99.90;;;;;;5041725;28;20973;-73
2023/12/29 03:56:10;;;;;;;10.17;6.60;;;10.50;99.90;;;;;;5037591;28;20506;-71
2023/12/29 03:58:37;;;;;;;11.77;7.27;;;10.40;99.90;;;;;;5042255;28;20606;-75
2023/12/29 04:01:04;;;;;;;6.77;4.80;;;;;;;;;;5042055;28;21238;-72
2023/12/29 04:03:31;;;;;;;12.80;9.53;;;10.40;99.90;;;;;;5041567;28;20578;-74
2023/12/29 04:05:57;;;;;;;18.87;7.27;;;10.40;99.90;;;;;;5042131;28;20558;-75
2023/12/29 04:08:26;;;;;;;6.83;3.97;;;10.40;99.90;;;;;;5040588;28;21214;-73
2023/12/29 04:10:52;;;;;;;11.00;6.87;;;10.40;99.90;;;;;;5042631;28;20569;-73
2023/12/29 04:13:19;;;;;;;9.73;5.13;;;10.40;99.90;;;;;;5045282;28;20555;-73
2023/12/29 04:15:46;;;;;;;13.33;4.17;;;10.40;99.90;;;;;;5041589;28;21146;-74
2023/12/29 04:18:13;;;;;;;8.03;6.67;;;10.30;99.90;;;;;;5036465;28;20562;-74
2023/12/29 04:20:40;;;;;;;15.47;6.27;;;10.40;99.90;;;;;;5028259;28;20562;-72
2023/12/29 04:23:09;;;;;;;10.23;6.53;;;10.40;99.90;;;;;;5047523;28;20588;-72
2023/12/29 04:25:37;;;;;;;8.30;6.63;;;10.40;99.90;;;;;;5041808;28;20900;-73
2023/12/29 04:28:04;;;;;;;15.53;7.90;;;10.30;99.90;;;;;;5032520;28;20928;-74
2023/12/29 04:30:31;;;;;;;6.27;5.67;;;10.30;99.90;;;;;;5046676;28;20561;-73
2023/12/29 04:32:58;;;;;;;9.87;6.37;;;10.30;99.90;;;;;;5053116;28;20549;-74
2023/12/29 04:35:24;;;;;;;13.00;7.63;;;10.40;99.90;;;;;;5053523;28;20703;-73
2023/12/29 04:37:52;;;;;;;11.13;9.93;;;10.20;99.90;;;;;;5040518;28;20515;-73
2023/12/29 04:40:19;;;;;;;20.23;9.10;;;;;;;;;;5041224;28;20999;-71
2023/12/29 04:42:47;;;;;;;8.30;3.90;;;10.10;99.90;;;;;;5042259;28;21178;-73
2023/12/29 04:45:16;;;;;;;14.03;7.43;;;10.20;99.90;;;;;;5032585;28;20870;-71
2023/12/29 04:47:43;;;;;;;9.53;7.17;;;;;;;;;;5071125;28;20879;-72
2023/12/29 04:50:10;;;;;;;6.13;5.30;;;10.10;99.90;;;;;;5040037;28;21021;-74
2023/12/29 04:52:37;;;;;;;9.50;8.53;;;10.20;99.90;;;;;;5051938;28;20869;-76
2023/12/29 04:55:04;;;;;;;7.43;6.50;;;10.10;99.90;;;;;;5058679;28;20590;-73
2023/12/29 04:57:31;;;;;;;9.47;4.90;;;10.20;99.90;;;;;;5060906;28;20510;-75
2023/12/29 04:59:59;;;;;;;5.50;3.90;;;10.10;99.90;;;;;;5051923;28;20599;-70
2023/12/29 05:02:26;;;;;;;7.60;6.57;;;10.10;99.90;;;;;;5043399;28;20841;-75
2023/12/29 05:04:52;;;;;;;8.10;5.40;;;10.10;99.90;;;;;;5038235;28;20934;-72
2023/12/29 05:07:19;;;;;;;8.30;6.67;;;10.20;99.90;;;;;;5041154;28;20471;-72
2023/12/29 05:09:46;;;;;;;8.97;5.60;;;10.10;99.90;;;;;;5044445;28;20503;-75
2023/12/29 05:12:16;;;;;;;8.60;5.20;;;10.10;99.90;;;;;;5047379;28;20496;-74
2023/12/29 05:14:43;;;;;;;10.57;8.20;;;10.00;99.90;;;;;;5041638;28;20577;-77
2023/12/29 05:17:11;;;;;;;10.50;5.80;;;10.10;99.90;;;;;;5041994;28;20507;-72
2023/12/29 05:19:38;;;;;;;10.90;5.23;;;10.00;99.90;;;;;;5040074;28;21056;-71
2023/12/29 05:22:04;;;;;;;8.80;6.67;;;10.10;99.90;;;;;;5041380;28;20535;-73
2023/12/29 05:24:31;;;;;;;9.10;8.20;;;10.10;99.90;;;;;;5040175;28;20553;-69
2023/12/29 05:26:58;;;;;;;7.83;5.63;;;10.00;99.90;;;;;;5040232;28;20511;-71
2023/12/29 05:29:25;;;;;;;7.23;6.53;;;10.10;99.90;;;;;;5039553;28;20549;-71
2023/12/29 05:31:52;;;;;;;20.37;5.57;;;10.00;99.90;;;;;;5046015;28;20586;-74
2023/12/29 05:34:20;;;;;;;7.67;4.60;;;10.10;99.90;;;;;;5053845;28;20507;-72
2023/12/29 05:36:47;;;;;;;5.93;5.10;;;10.10;99.90;;;;;;5051729;28;21055;-73
2023/12/29 05:39:14;;;;;;;7.63;6.07;;;10.10;99.90;;;;;;5052289;28;21298;-72
2023/12/29 05:41:41;;;;;;;5.00;4.33;;;10.10;99.90;;;;;;5047308;28;20494;-73
2023/12/29 05:44:07;;;;;;;4.10;3.70;;;10.00;99.90;;;;;;5042160;28;20506;-74
2023/12/29 05:46:34;;;;;;;11.70;8.50;;;10.10;99.90;;;;;;5039678;28;20472;-72
2023/12/29 05:49:01;;;;;;;8.47;7.00;;;10.00;99.90;;;;;;5039319;28;21079;-72
2023/12/29 05:51:29;;;;;;;9.87;6.63;;;10.10;99.90;;;;;;5039863;28;20548;-69
2023/12/29 05:53:56;;;;;;;4.87;3.10;;;10.10;99.90;;;;;;5048414;28;20551;-72
2023/12/29 05:56:23;;;;;;;8.90;6.10;;;10.10;99.90;;;;;;5047374;28;20562;-71
2023/12/29 05:58:49;;;;;;;5.97;4.47;;;10.10;99.90;;;;;;5037630;28;20571;-71
2023/12/29 06:01:16;;;;;;;8.50;5.73;;;10.20;99.90;;;;;;5048661;28;20488;-71
2023/12/29 06:03:43;;;;;;;9.80;7.50;;;10.10;99.90;;;;;;5040111;28;20503;-73
2023/12/29 06:06:10;;;;;;;6.63;5.43;;;10.10;99.90;;;;;;5044228;28;20567;-72
2023/12/29 06:08:38;;;;;;;7.20;6.20;;;10.10;99.90;;;;;;5047257;28;20508;-71
2023/12/29 06:11:05;;;;;;;9.40;7.00;;;10.10;99.90;;;;;;5046422;28;20558;-71
2023/12/29 06:13:31;;;;;;;4.83;4.37;;;10.20;99.90;;;;;;5050400;28;20550;-70
2023/12/29 06:15:58;;;;;;;11.30;7.30;;;10.20;99.90;;;;;;5039344;28;20498;-70
2023/12/29 06:18:25;;;;;;;3.93;3.30;;;10.20;99.90;;;;;;5043683;28;20766;-73
2023/12/29 06:20:52;;;;;;;15.60;5.60;;;10.00;99.90;;;;;;5050801;28;20563;-71
2023/12/29 06:23:20;;;;;;;4.67;3.60;;;10.10;99.90;;;;;;5051395;28;20495;-70
2023/12/29 06:25:48;;;;;;;11.47;5.20;;;10.10;99.90;;;;;;5043143;28;20558;-69
2023/12/29 06:28:15;;;;;;;7.17;6.20;;;10.10;99.90;;;;;;5056209;28;20471;-70
2023/12/29 06:30:42;;;;;;;10.00;4.57;;;10.20;99.90;;;;;;5053371;28;20495;-70
2023/12/29 06:33:08;;;;;;;10.87;7.10;;;10.20;99.90;;;;;;5050486;28;20477;-70
2023/12/29 06:35:35;;;;;;;7.67;5.20;;;10.20;99.90;;;;;;5059459;28;20582;-70
2023/12/29 06:38:02;;;;;;;12.30;5.10;;;10.30;99.90;;;;;;5043121;28;20515;-73
2023/12/29 06:40:29;;;;;;;4.27;3.87;;;10.30;99.90;;;;;;5046503;28;20584;-72
2023/12/29 06:42:57;;;;;;;9.17;5.50;;;10.30;99.90;;;;;;5051339;28;20597;-74
2023/12/29 06:45:24;;;;;;;8.90;6.23;;;10.30;99.90;;;;;;5039999;28;20534;-73
2023/12/29 06:47:50;;;;;;;6.83;6.00;;;10.40;99.90;;;;;;5040737;28;20480;-73
2023/12/29 06:50:17;;;;;;;12.70;6.57;;;10.40;99.90;;;;;;5042883;28;20558;-72
2023/12/29 06:52:44;;;;;;;10.30;5.73;;;10.40;99.90;;;;;;5047347;28;20474;-72
2023/12/29 06:55:10;;;;;;;5.37;4.40;;;10.40;99.90;;;;;;5051560;28;20579;-71
2023/12/29 06:57:36;;;;;;;5.43;3.73;;;10.40;99.90;;;;;;5059106;28;20546;-71
2023/12/29 07:00:07;;;;;;;8.03;4.83;;;10.40;99.90;;;;;;5058574;28;20692;-70
2023/12/29 07:02:34;;;;;;;7.73;5.30;;;10.40;99.90;;;;;;5058738;28;20922;-73
2023/12/29 07:05:01;;;;;;;38.07;6.80;;;10.40;99.90;;;;;;5059677;28;21042;-70
2023/12/29 07:07:27;;;;;;;7.77;4.77;;;10.40;99.90;;;;;;5060142;28;20558;-72
2023/12/29 07:09:54;;;;;;;6.40;5.33;;;10.40;99.90;;;;;;5059539;28;20625;-72
2023/12/29 07:12:21;;;;;;;3.93;2.90;;;10.40;99.90;;;;;;5058878;28;20574;-71
2023/12/29 07:14:48;;;;;;;5.80;4.37;;;10.30;99.90;;;;;;5052421;28;20579;-71
2023/12/29 07:17:16;;;;;;;7.70;4.07;;;10.40;99.90;;;;;;5064520;28;20563;-72
2023/12/29 07:19:43;;;;;;;9.70;6.30;;;10.30;99.90;;;;;;5058994;28;20569;-70
2023/12/29 07:22:09;;;;;;;8.40;4.40;;;10.40;99.90;;;;;;5059206;28;20510;-72
2023/12/29 07:24:37;;;;;;;6.23;4.90;;;10.40;99.90;;;;;;5057900;28;20562;-70
2023/12/29 07:27:04;;;;;;;4.60;3.70;;;10.40;99.90;;;;;;5057485;28;20570;-75
2023/12/29 07:29:31;;;;;;;5.50;3.13;;;10.30;99.90;;;;;;5066556;28;21388;-73
2023/12/29 07:31:59;;;;;;;3.90;3.40;;;10.40;99.90;;;;;;5058242;28;20546;-72
2023/12/29 07:34:28;;;;;;;5.40;4.90;;;;;;;;;;5063191;28;20558;-71
2023/12/29 07:36:54;;;;;;;3.57;3.20;;;10.40;99.90;;;;;;5058531;28;22712;-71
2023/12/29 07:39:21;;;;;;;16.90;5.60;;;10.40;99.90;;;;;;5062050;28;20577;-69
2023/12/29 07:41:50;;;;;;;4.57;3.93;;;10.40;99.90;;;;;;5062781;28;20515;-69
2023/12/29 07:44:17;;;;;;;4.93;2.70;;;10.50;99.90;;;;;;5062433;28;20585;-73
2023/12/29 07:46:45;;;;;;;8.50;3.87;;;10.50;99.90;;;;;;5063760;28;20519;-72
2023/12/29 07:49:12;;;;;;;8.40;6.27;;;10.60;99.90;;;;;;5062423;28;21276;-71
2023/12/29 07:51:42;;;;;;;5.30;4.60;;;10.50;99.90;;;;;;5061341;28;20625;-73
2023/12/29 07:54:09;;;;;;;7.63;5.20;;;10.50;99.90;;;;;;5062208;28;20475;-71
2023/12/29 07:56:37;;;;;;;3.93;3.47;;;10.60;99.90;;;;;;5059417;28;20553;-71
2023/12/29 07:59:04;;;;;;;2.73;2.53;;;10.50;99.90;;;;;;5066731;28;20552;-74
2023/12/29 08:01:31;;;;;;;9.20;3.90;;;10.60;99.90;;;;;;5058370;28;20491;-72
2023/12/29 08:03:57;;;;;;;4.97;4.47;;;10.50;99.90;;;;;;5051755;28;20533;-69
2023/12/29 08:06:24;;;;;;;7.60;4.60;;;10.50;99.90;;;;;;5058053;28;20511;-69
2023/12/29 08:08:52;;;;;;;4.83;3.93;;;10.40;99.90;;;;;;5049518;28;20486;-70
2023/12/29 08:11:20;;;;;;;4.90;3.10;;;10.50;99.90;;;;;;5057051;28;20510;-71
2023/12/29 08:13:48;;;;;;;10.53;2.70;;;10.60;99.90;;;;;;5059258;28;20568;-72
2023/12/29 08:16:17;;;;;;;3.60;2.60;;;10.50;99.90;;;;;;5061757;28;21038;-71
2023/12/29 08:18:44;;;;;;;4.40;2.50;;;;;;;;;;5061998;28;20921;-69
2023/12/29 08:21:18;;;;;;;14.20;3.47;;;10.60;99.90;;;;;;5060066;28;20526;-72
2023/12/29 08:23:44;;;;;;;4.13;2.80;;;10.60;99.90;;;;;;5062745;28;21183;-71
2023/12/29 08:26:13;;;;;;;7.20;3.63;;;10.50;99.90;;;;;;5062511;28;20449;-70
2023/12/29 08:28:39;;;;;;;3.73;2.90;;;10.60;99.90;;;;;;5061621;28;20561;-70
2023/12/29 08:31:07;;;;;;;4.77;3.40;;;10.70;99.90;;;;;;5061786;28;20840;-71
2023/12/29 08:33:34;;;;;;;3.10;2.80;;;10.50;99.90;;;;;;5061944;28;20462;-69
2023/12/29 08:36:03;;;;;;;2.30;1.93;;;10.60;99.90;;;;;;5062445;28;20567;-73
2023/12/29 08:38:30;;;;;;;3.83;2.27;;;10.60;99.90;;;;;;5061525;28;20977;-71
2023/12/29 08:40:57;;;;;;;3.27;2.00;;;10.80;99.90;;;;;;5061872;28;20483;-71
2023/12/29 08:43:26;;;;;;;7.10;3.10;;;10.70;99.90;;;;;;5062156;28;20875;-70
2023/12/29 08:45:53;;;;;;;3.10;2.10;;;10.70;99.90;;;;;;5061878;28;20481;-70
2023/12/29 08:48:20;;;;;;;12.00;3.23;;;10.70;99.90;;;;;;5061797;28;20520;-70
2023/12/29 08:50:46;;;;;;;2.10;1.87;;;10.70;99.90;;;;;;5060184;28;20503;-72
2023/12/29 08:53:13;;;;;;;11.23;4.00;;;10.50;99.90;;;;;;5062141;28;20969;-68
2023/12/29 08:55:40;;;;;;;15.90;3.50;;;10.70;99.90;;;;;;5062035;28;20475;-69
2023/12/29 08:58:07;;;;;;;4.77;3.50;;;;;;;;;;5062701;28;20540;-69
2023/12/29 09:00:35;;;;;;;4.20;2.40;;;10.80;99.90;;;;;;5059526;28;20510;-71
2023/12/29 09:03:02;;;;;;;4.93;2.93;;;10.70;99.90;;;;;;5061092;28;20566;-68
2023/12/29 09:05:29;;;;;;;4.40;3.27;;;10.70;99.90;;;;;;5059405;28;20462;-72
2023/12/29 09:07:56;;;;;;;3.47;2.67;;;10.60;99.90;;;;;;5060425;28;21121;-71
2023/12/29 09:10:23;;;;;;;7.67;3.37;;;10.80;99.90;;;;;;5058131;28;21090;-71
2023/12/29 09:12:50;;;;;;;4.80;3.67;;;10.70;99.90;;;;;;5061442;28;20490;-69
2023/12/29 09:15:16;;;;;;;5.17;3.97;;;10.60;99.90;;;;;;5061847;28;21035;-72
2023/12/29 09:17:45;;;;;;;2.93;2.37;;;10.70;99.90;;;;;;5061650;28;20503;-71
2023/12/29 09:20:12;;;;;;;3.50;2.90;;;10.80;99.90;;;;;;5060621;28;20514;-71
2023/12/29 09:22:39;;;;;;;26.27;4.53;;;;;;;;;;5060896;28;20498;-72
2023/12/29 09:25:06;;;;;;;2.63;2.00;;;10.90;99.90;;;;;;5046690;28;21108;-72
2023/12/29 09:27:33;;;;;;;3.43;1.50;;;10.90;99.90;;;;;;5054907;28;20502;-70
2023/12/29 09:30:00;;;;;;;7.27;3.53;;;10.80;99.90;;;;;;5053536;28;20555;-69
2023/12/29 09:32:27;;;;;;;2.67;2.27;;;10.70;99.90;;;;;;5048900;28;20478;-69
2023/12/29 09:34:55;;;;;;;2.60;2.27;;;10.80;99.90;;;;;;5042130;28;20563;-71
2023/12/29 09:37:23;;;;;;;7.20;3.80;;;10.80;99.90;;;;;;5040765;28;20902;-69
2023/12/29 09:39:50;;;;;;;4.50;3.80;;;10.70;99.90;;;;;;5039863;28;20961;-70
2023/12/29 09:42:22;;;;;;;3.13;2.83;;;10.70;99.90;;;;;;5039216;28;20554;-70
2023/12/29 09:44:51;;;;;;;10.27;2.93;;;10.70;99.90;;;;;;5040298;28;20485;-71
2023/12/29 09:47:23;;;;;;;3.07;2.60;;;10.90;99.90;;;;;;5040645;28;20568;-71
2023/12/29 09:49:52;;;;;;;2.60;2.37;;;10.90;99.90;;;;;;5035983;28;20990;-69
2023/12/29 09:52:22;;;;;;;5.30;3.60;;;10.90;99.90;;;;;;5040365;28;20579;-69
2023/12/29 09:54:50;;;;;;;9.43;2.20;;;11.00;99.90;;;;;;5048391;28;20510;-72
2023/12/29 09:57:19;;;;;;;11.07;3.10;;;10.90;99.90;;;;;;5060271;28;21123;-70
2023/12/29 09:59:46;;;;;;;3.80;2.27;;;10.90;99.90;;;;;;5045384;28;20903;-69
2023/12/29 10:02:15;;;;;;;3.13;2.83;;;11.10;99.90;;;;;;5049629;28;20832;-71
2023/12/29 10:04:42;;;;;;;3.83;3.20;;;11.10;99.90;;;;;;5068435;28;20561;-71
2023/12/29 10:07:25;;;;;;;11.47;3.07;;;11.00;99.90;;;;;;5061311;28;20556;-68
2023/12/29 10:09:58;;;;;;;4.63;2.90;;;11.20;99.90;;;;;;5048269;28;20483;-67
2023/12/29 10:12:25;;;;;;;3.20;2.90;;;11.00;99.90;;;;;;5044885;28;20482;-69
2023/12/29 10:15:05;;;;;;;4.13;3.00;;;11.00;99.90;;;;;;5050722;28;20774;-70
2023/12/29 10:17:42;;;;;;;8.20;3.90;;;11.00;99.90;;;;;;5047892;28;20481;-69
2023/12/29 10:20:16;;;;;;;13.90;3.10;;;11.00;99.90;;;;;;5048295;28;20541;-69
2023/12/29 10:22:52;;;;;;;2.30;1.67;;;11.00;99.90;;;;;;5039552;28;20486;-74
2023/12/29 10:25:21;;;;;;;6.20;2.27;;;11.10;99.90;;;;;;5036654;28;20999;-71
2023/12/29 10:27:48;;;;;;;6.10;2.50;;;10.90;99.90;;;;;;5055904;28;20510;-69
2023/12/29 10:30:16;;;;;;;4.20;3.60;;;10.90;99.90;;;;;;5050525;28;20898;-71
2023/12/29 10:32:42;;;;;;;3.10;2.50;;;11.00;99.90;;;;;;5041280;28;20562;-72
2023/12/29 10:35:11;;;;;;;2.30;1.77;;;11.00;99.90;;;;;;5039329;28;20914;-70
2023/12/29 10:37:38;;;;;;;3.53;1.50;;;11.10;99.90;;;;;;5035302;28;20483;-69
2023/12/29 10:40:07;;;;;;;3.90;1.20;;;11.10;99.90;;;;;;5038735;28;20476;-71
2023/12/29 10:42:35;;;;;;;2.00;1.70;;;11.10;99.90;;;;;;5039520;28;20578;-70
2023/12/29 10:45:10;;;;;;;8.73;2.20;;;11.20;99.90;;;;;;5040334;28;20572;-71
2023/12/29 10:47:38;;;;;;;2.13;1.27;;;11.20;99.90;;;;;;5033593;28;21534;-69
2023/12/29 10:50:05;;;;;;;7.53;2.50;;;11.20;99.90;;;;;;5039606;28;20487;-69
2023/12/29 10:52:33;;;;;;;6.60;1.00;;;11.40;99.90;;;;;;5038512;28;20567;-70
2023/12/29 10:55:08;;;;;;;1.70;1.20;;;11.40;99.90;;;;;;5040066;28;20538;-71
2023/12/29 10:57:36;;;;;;;2.40;1.43;;;11.10;99.90;;;;;;5039127;28;21189;-71
2023/12/29 11:00:05;;;;;;;6.67;2.67;;;11.50;99.90;;;;;;5037078;28;20488;-70
2023/12/29 11:02:33;;;;;;;2.60;1.90;;;11.50;99.90;;;;;;5040505;28;20500;-70
2023/12/29 11:05:04;;;;;;;7.03;1.60;;;11.60;99.90;;;;;;5039533;28;20566;-73
2023/12/29 11:07:38;;;;;;;2.33;2.00;;;11.60;99.90;;;;;;5037908;28;20562;-72
2023/12/29 11:10:07;;;;;;;4.00;2.20;;;11.50;99.90;;;;;;5040959;28;20574;-69
2023/12/29 11:12:37;;;;;;;6.77;2.00;;;11.60;99.90;;;;;;5048987;28;20577;-70
2023/12/29 11:15:05;;;;;;;3.20;2.90;;;11.60;99.90;;;;;;5051638;28;20566;-71
2023/12/29 11:17:34;;;;;;;6.20;1.63;;;11.70;99.90;;;;;;5042965;28;21029;-71
2023/12/29 11:20:02;;;;;;;5.00;1.77;;;11.70;99.90;;;;;;5057116;28;20586;-73
2023/12/29 11:22:31;;;;;;;3.10;2.80;;;11.70;99.90;;;;;;5062166;28;20471;-70
2023/12/29 11:24:59;;;;;;;2.60;2.30;;;11.70;99.90;;;;;;5058049;28;20525;-71
2023/12/29 11:27:29;;;;;;;10.43;2.77;;;11.70;99.90;;;;;;5051365;28;20510;-71
2023/12/29 11:29:59;;;;;;;3.80;2.23;;;11.80;99.90;;;;;;5046970;28;20518;-72
2023/12/29 11:32:32;;;;;;;3.80;3.13;;;11.70;99.90;;;;;;5047283;28;20575;-68
2023/12/29 11:35:12;;;;;;;2.20;1.83;;;11.70;99.90;;;;;;5043587;28;20574;-70
2023/12/29 11:37:54;;;;;;;3.23;2.60;;;11.70;99.90;;;;;;5043905;28;20479;-70
2023/12/29 11:40:24;;;;;;;10.20;3.10;;;11.70;99.90;;;;;;5042474;28;20567;-70
2023/12/29 11:42:54;;;;;;;3.40;2.20;;;11.70;99.90;;;;;;5044789;28;20570;-72
2023/12/29 11:45:31;;;;;;;3.20;2.60;;;11.60;99.90;;;;;;5046540;28;20487;-71
2023/12/29 11:48:02;;;;;;;6.73;4.27;;;11.60;99.90;;;;;;5048748;28;20925;-68
2023/12/29 11:50:30;;;;;;;8.70;3.70;;;11.60;99.90;;;;;;5047973;28;20580;-71
2023/12/29 11:52:57;;;;;;;3.97;3.57;;;11.60;99.90;;;;;;5062665;28;20562;-71
2023/12/29 11:55:30;;;;;;;17.63;4.43;;;11.60;99.90;;;;;;5056447;28;20977;-71
2023/12/29 11:57:57;;;;;;;4.07;3.30;;;11.60;99.90;;;;;;5062314;28;20537;-72
2023/12/29 12:00:44;;;;;;;4.50;3.70;;;11.70;99.90;;;;;;5046140;28;20709;-71
2023/12/29 12:03:19;;;;;;;11.23;5.00;;;11.60;99.90;;;;;;5056471;28;20583;-71
2023/12/29 12:05:47;;;;;;;9.30;4.10;;;11.60;99.90;;;;;;5041677;28;20497;-71
2023/12/29 12:08:28;;;;;;;7.97;3.00;;;11.60;99.90;;;;;;5042003;28;20579;-72
2023/12/29 12:10:55;;;;;;;5.70;3.17;;;11.50;99.90;;;;;;5036970;28;20549;-71
2023/12/29 12:13:44;;;;;;;4.33;3.37;;;11.40;99.90;;;;;;5052088;28;20550;-72
2023/12/29 12:16:48;;;;;;;10.27;3.90;;;11.50;99.90;;;;;;5052035;28;20528;-71
2023/12/29 12:19:16;;;;;;;3.30;2.63;;;11.50;99.90;;;;;;5049643;28;20474;-73
2023/12/29 12:21:47;;;;;;;28.47;5.83;;;11.40;99.90;;;;;;5046018;28;20491;-72
2023/12/29 12:24:14;;;;;;;3.17;2.80;;;11.40;99.90;;;;;;5037427;28;20559;-73
2023/12/29 12:26:41;;;;;;;3.53;2.40;;;11.30;99.90;;;;;;5046194;28;20476;-72
2023/12/29 12:29:09;;;;;;;9.57;3.43;;;11.40;99.90;;;;;;5060895;28;20921;-71
2023/12/29 12:31:37;;;;;;;8.07;3.53;;;11.50;99.90;;;;;;5047583;28;20905;-73
2023/12/29 12:34:05;;;;;;;6.50;2.30;;;11.40;99.90;;;;;;5041615;28;20516;-72
2023/12/29 12:36:32;;;;;;;3.80;2.97;;;11.30;99.90;;;;;;5046901;28;20533;-72
2023/12/29 12:39:00;;;;;;;3.57;2.50;;;11.30;99.90;;;;;;5037045;28;20575;-69
2023/12/29 12:41:27;;;;;;;7.53;2.17;;;11.30;99.90;;;;;;5035402;28;21003;-72
2023/12/29 12:44:04;;;;;;;3.17;2.73;;;11.30;99.90;;;;;;5040710;28;20487;-71
2023/12/29 12:46:35;;;;;;;2.23;1.87;;;11.40;99.90;;;;;;5046775;28;20567;-71
2023/12/29 12:49:04;;;;;;;17.87;3.47;;;11.40;99.90;;;;;;5035199;28;20476;-72
2023/12/29 12:51:33;;;;;;;6.83;1.77;;;11.30;99.90;;;;;;5045356;28;20984;-70
2023/12/29 12:54:00;;;;;;;6.93;1.73;;;11.30;99.90;;;;;;5043080;28;20791;-72